sensor_id;sensor_type;location;lat;lon;timestamp;pressure;altitude;pressure_sealevel;temperature
75431;BMP280;64127;51.488;5.462;2024-01-15T00:01:46;100239.44;;;4.01
75431;BMP280;64127;51.488;5.462;2024-01-15T00:04:19;100230.88;;;4.02
75431;BMP280;64127;51.488;5.462;2024-01-15T00:06:51;100222.31;;;4.03
75431;BMP280;64127;51.488;5.462;2024-01-15T00:09:23;100226.69;;;4.04
75431;BMP280;64127;51.488;5.462;2024-01-15T00:11:55;100224.09;;;4.04
75431;BMP280;64127;51.488;5.462;2024-01-15T00:14:28;100219.78;;;4.04
75431;BMP280;64127;51.488;5.462;2024-01-15T00:17:00;100218.19;;;4.06
75431;BMP280;64127;51.488;5.462;2024-01-15T00:19:32;100212.28;;;4.09
75431;BMP280;64127;51.488;5.462;2024-01-15T00:22:04;100206.38;;;4.12
75431;BMP280;64127;51.488;5.462;2024-01-15T00:24:36;100204.41;;;4.07
75431;BMP280;64127;51.488;5.462;2024-01-15T00:27:08;100195.78;;;4.07
75431;BMP280;64127;51.488;5.462;2024-01-15T00:29:41;100199.94;;;4.05
75431;BMP280;64127;51.488;5.462;2024-01-15T00:32:13;100197.19;;;4.02
75431;BMP280;64127;51.488;5.462;2024-01-15T00:34:45;100203.19;;;4.01
75431;BMP280;64127;51.488;5.462;2024-01-15T00:37:17;100199.78;;;4.02
75431;BMP280;64127;51.488;5.462;2024-01-15T00:39:49;100183.09;;;3.97
75431;BMP280;64127;51.488;5.462;2024-01-15T00:42:21;100188.47;;;4.00
75431;BMP280;64127;51.488;5.462;2024-01-15T00:44:53;100169.78;;;3.91
75431;BMP280;64127;51.488;5.462;2024-01-15T00:47:26;100175.50;;;4.00
75431;BMP280;64127;51.488;5.462;2024-01-15T00:49:58;100173.72;;;3.99
75431;BMP280;64127;51.488;5.462;2024-01-15T00:52:30;100177.25;;;4.01
75431;BMP280;64127;51.488;5.462;2024-01-15T00:55:02;100178.25;;;4.03
75431;BMP280;64127;51.488;5.462;2024-01-15T00:57:34;100180.75;;;4.01
75431;BMP280;64127;51.488;5.462;2024-01-15T01:00:07;100163.50;;;4.02
75431;BMP280;64127;51.488;5.462;2024-01-15T01:02:39;100172.28;;;4.04
75431;BMP280;64127;51.488;5.462;2024-01-15T01:05:11;100163.69;;;4.05
75431;BMP280;64127;51.488;5.462;2024-01-15T01:07:43;100159.50;;;4.07
75431;BMP280;64127;51.488;5.462;2024-01-15T01:10:15;100153.47;;;4.08
75431;BMP280;64127;51.488;5.462;2024-01-15T01:12:47;100163.84;;;4.08
75431;BMP280;64127;51.488;5.462;2024-01-15T01:15:19;100159.56;;;4.08
75431;BMP280;64127;51.488;5.462;2024-01-15T01:17:51;100152.69;;;4.09
75431;BMP280;64127;51.488;5.462;2024-01-15T01:20:24;100156.22;;;4.11
75431;BMP280;64127;51.488;5.462;2024-01-15T01:22:56;100161.50;;;4.13
75431;BMP280;64127;51.488;5.462;2024-01-15T01:25:28;100159.81;;;4.13
75431;BMP280;64127;51.488;5.462;2024-01-15T01:28:00;100149.28;;;4.10
75431;BMP280;64127;51.488;5.462;2024-01-15T01:30:32;100149.44;;;4.13
75431;BMP280;64127;51.488;5.462;2024-01-15T01:33:04;100145.22;;;4.15
75431;BMP280;64127;51.488;5.462;2024-01-15T01:35:36;100160.78;;;4.15
75431;BMP280;64127;51.488;5.462;2024-01-15T01:38:08;100151.94;;;4.12
75431;BMP280;64127;51.488;5.462;2024-01-15T01:40:40;100156.22;;;4.11
75431;BMP280;64127;51.488;5.462;2024-01-15T01:43:12;100162.41;;;4.13
75431;BMP280;64127;51.488;5.462;2024-01-15T01:45:44;100164.84;;;4.10
75431;BMP280;64127;51.488;5.462;2024-01-15T01:48:17;100157.06;;;4.10
75431;BMP280;64127;51.488;5.462;2024-01-15T01:50:49;100150.97;;;4.09
75431;BMP280;64127;51.488;5.462;2024-01-15T01:53:23;100154.47;;;4.10
75431;BMP280;64127;51.488;5.462;2024-01-15T01:55:57;100151.72;;;4.07
75431;BMP280;64127;51.488;5.462;2024-01-15T01:58:32;100156.22;;;4.11
75431;BMP280;64127;51.488;5.462;2024-01-15T02:01:05;100160.44;;;4.09
75431;BMP280;64127;51.488;5.462;2024-01-15T02:03:38;100168.22;;;4.09
75431;BMP280;64127;51.488;5.462;2024-01-15T02:06:11;100157.75;;;4.07
75431;BMP280;64127;51.488;5.462;2024-01-15T02:08:44;100152.50;;;4.06
75431;BMP280;64127;51.488;5.462;2024-01-15T02:11:16;100150.97;;;4.09
75431;BMP280;64127;51.488;5.462;2024-01-15T02:13:48;100151.88;;;4.10
75431;BMP280;64127;51.488;5.462;2024-01-15T02:16:20;100150.81;;;4.06
75431;BMP280;64127;51.488;5.462;2024-01-15T02:18:52;100150.88;;;4.08
75431;BMP280;64127;51.488;5.462;2024-01-15T02:21:24;100155.28;;;4.09
75431;BMP280;64127;51.488;5.462;2024-01-15T02:24:00;100154.53;;;4.12
75431;BMP280;64127;51.488;5.462;2024-01-15T02:26:32;100148.47;;;4.11
75431;BMP280;64127;51.488;5.462;2024-01-15T02:29:08;100122.63;;;3.96
75431;BMP280;64127;51.488;5.462;2024-01-15T02:31:41;100145.06;;;4.12
75431;BMP280;64127;51.488;5.462;2024-01-15T02:34:13;100145.22;;;4.15
75431;BMP280;64127;51.488;5.462;2024-01-15T02:36:46;100139.25;;;4.16
75431;BMP280;64127;51.488;5.462;2024-01-15T02:39:18;100118.25;;;3.95
75431;BMP280;64127;51.488;5.462;2024-01-15T02:41:50;100145.00;;;4.11
75431;BMP280;64127;51.488;5.462;2024-01-15T02:44:22;100146.69;;;4.10
75431;BMP280;64127;51.488;5.462;2024-01-15T02:46:54;100126.28;;;4.00
75431;BMP280;64127;51.488;5.462;2024-01-15T02:49:26;100140.28;;;4.03
75431;BMP280;64127;51.488;5.462;2024-01-15T02:51:58;100140.19;;;4.02
75431;BMP280;64127;51.488;5.462;2024-01-15T02:54:30;100145.53;;;4.05
75431;BMP280;64127;51.488;5.462;2024-01-15T02:57:03;100142.00;;;4.03
75431;BMP280;64127;51.488;5.462;2024-01-15T02:59:35;100144.56;;;4.03
75431;BMP280;64127;51.488;5.462;2024-01-15T03:02:07;100139.41;;;4.03
75431;BMP280;64127;51.488;5.462;2024-01-15T03:04:44;100135.00;;;4.02
75431;BMP280;64127;51.488;5.462;2024-01-15T03:07:16;100146.19;;;4.01
75431;BMP280;64127;51.488;5.462;2024-01-15T03:09:48;100144.25;;;3.97
75431;BMP280;64127;51.488;5.462;2024-01-15T03:12:20;100156.31;;;3.96
75431;BMP280;64127;51.488;5.462;2024-01-15T03:14:52;100152.88;;;3.97
75431;BMP280;64127;51.488;5.462;2024-01-15T03:17:24;100159.78;;;3.97
75431;BMP280;64127;51.488;5.462;2024-01-15T03:19:56;100158.97;;;3.98
75431;BMP280;64127;51.488;5.462;2024-01-15T03:22:29;100161.81;;;4.02
75431;BMP280;64127;51.488;5.462;2024-01-15T03:25:01;100154.94;;;4.03
75431;BMP280;64127;51.488;5.462;2024-01-15T03:27:33;100147.06;;;4.01
75431;BMP280;64127;51.488;5.462;2024-01-15T03:30:06;100147.97;;;4.02
75431;BMP280;64127;51.488;5.462;2024-01-15T03:32:38;100147.81;;;3.99
75431;BMP280;64127;51.488;5.462;2024-01-15T03:35:10;100140.66;;;3.95
75431;BMP280;64127;51.488;5.462;2024-01-15T03:37:42;100143.19;;;3.93
75431;BMP280;64127;51.488;5.462;2024-01-15T03:40:15;100138.06;;;3.95
75431;BMP280;64127;51.488;5.462;2024-01-15T03:42:51;100112.41;;;3.83
75431;BMP280;64127;51.488;5.462;2024-01-15T03:45:24;100141.66;;;3.97
75431;BMP280;64127;51.488;5.462;2024-01-15T03:47:56;100133.94;;;3.98
75431;BMP280;64127;51.488;5.462;2024-01-15T03:50:28;100140.75;;;3.96
75431;BMP280;64127;51.488;5.462;2024-01-15T03:53:00;100136.47;;;3.97
75431;BMP280;64127;51.488;5.462;2024-01-15T03:55:32;100133.88;;;3.97
75431;BMP280;64127;51.488;5.462;2024-01-15T03:58:04;100133.78;;;3.95
75431;BMP280;64127;51.488;5.462;2024-01-15T04:00:36;100134.75;;;3.97
75431;BMP280;64127;51.488;5.462;2024-01-15T04:03:08;100125.44;;;4.01
75431;BMP280;64127;51.488;5.462;2024-01-15T04:05:41;100115.28;;;4.04
75431;BMP280;64127;51.488;5.462;2024-01-15T04:08:12;100111.69;;;4.02
75431;BMP280;64127;51.488;5.462;2024-01-15T04:10:45;100106.78;;;4.06
75431;BMP280;64127;51.488;5.462;2024-01-15T04:13:17;100107.66;;;4.07
75431;BMP280;64127;51.488;5.462;2024-01-15T04:15:49;100105.94;;;4.07
75431;BMP280;64127;51.488;5.462;2024-01-15T04:18:21;100106.69;;;4.05
75431;BMP280;64127;51.488;5.462;2024-01-15T04:20:53;100102.50;;;4.07
75431;BMP280;64127;51.488;5.462;2024-01-15T04:23:25;100114.53;;;4.06
75431;BMP280;64127;51.488;5.462;2024-01-15T04:25:57;100106.69;;;4.05
75431;BMP280;64127;51.488;5.462;2024-01-15T04:28:29;100097.22;;;4.05
75431;BMP280;64127;51.488;5.462;2024-01-15T04:31:01;100096.47;;;4.08
75431;BMP280;64127;51.488;5.462;2024-01-15T04:33:33;100090.41;;;4.07
75431;BMP280;64127;51.488;5.462;2024-01-15T04:36:06;100092.03;;;4.05
75431;BMP280;64127;51.488;5.462;2024-01-15T04:38:39;100097.22;;;4.05
75431;BMP280;64127;51.488;5.462;2024-01-15T04:41:16;100096.47;;;4.08
75431;BMP280;64127;51.488;5.462;2024-01-15T04:43:48;100090.41;;;4.07
75431;BMP280;64127;51.488;5.462;2024-01-15T04:46:20;100092.28;;;4.10
75431;BMP280;64127;51.488;5.462;2024-01-15T04:48:52;100096.63;;;4.11
75431;BMP280;64127;51.488;5.462;2024-01-15T04:51:24;100090.41;;;4.07
75431;BMP280;64127;51.488;5.462;2024-01-15T04:53:57;100087.47;;;4.01
75431;BMP280;64127;51.488;5.462;2024-01-15T04:56:29;100088.13;;;3.97
75431;BMP280;64127;51.488;5.462;2024-01-15T04:59:01;100092.25;;;3.94
75431;BMP280;64127;51.488;5.462;2024-01-15T05:01:33;100083.34;;;3.89
75431;BMP280;64127;51.488;5.462;2024-01-15T05:04:05;100097.19;;;3.89
75431;BMP280;64127;51.488;5.462;2024-01-15T05:06:37;100095.50;;;3.90
75431;BMP280;64127;51.488;5.462;2024-01-15T05:09:09;100087.91;;;3.93
75431;BMP280;64127;51.488;5.462;2024-01-15T05:11:41;100081.88;;;3.94
75431;BMP280;64127;51.488;5.462;2024-01-15T05:14:13;100082.94;;;3.97
75431;BMP280;64127;51.488;5.462;2024-01-15T05:16:49;100087.25;;;3.97
75431;BMP280;64127;51.488;5.462;2024-01-15T05:19:21;100075.00;;;3.94
75431;BMP280;64127;51.488;5.462;2024-01-15T05:21:53;100071.78;;;3.98
75431;BMP280;64127;51.488;5.462;2024-01-15T05:24:25;100077.06;;;4.00
75431;BMP280;64127;51.488;5.462;2024-01-15T05:26:58;100061.34;;;3.97
75431;BMP280;64127;51.488;5.462;2024-01-15T05:29:30;100053.22;;;3.91
75431;BMP280;64127;51.488;5.462;2024-01-15T05:32:02;100055.97;;;3.94
75431;BMP280;64127;51.488;5.462;2024-01-15T05:34:34;100057.78;;;3.95
75431;BMP280;64127;51.488;5.462;2024-01-15T05:37:06;100065.47;;;3.93
75431;BMP280;64127;51.488;5.462;2024-01-15T05:39:38;100062.88;;;3.93
75431;BMP280;64127;51.488;5.462;2024-01-15T05:42:10;100064.75;;;3.96
75431;BMP280;64127;51.488;5.462;2024-01-15T05:44:43;100055.44;;;3.99
75431;BMP280;64127;51.488;5.462;2024-01-15T05:47:15;100058.09;;;4.01
75431;BMP280;64127;51.488;5.462;2024-01-15T05:49:47;100052.91;;;4.01
75431;BMP280;64127;51.488;5.462;2024-01-15T05:52:19;100055.59;;;4.02
75431;BMP280;64127;51.488;5.462;2024-01-15T05:54:52;100064.47;;;4.07
75431;BMP280;64127;51.488;5.462;2024-01-15T05:57:24;100047.19;;;4.06
75431;BMP280;64127;51.488;5.462;2024-01-15T05:59:57;100047.41;;;4.11
75431;BMP280;64127;51.488;5.462;2024-01-15T06:02:29;100049.13;;;4.11
75431;BMP280;64127;51.488;5.462;2024-01-15T06:05:01;100040.63;;;4.13
75431;BMP280;64127;51.488;5.462;2024-01-15T06:07:35;100036.06;;;4.09
75431;BMP280;64127;51.488;5.462;2024-01-15T06:10:08;100049.13;;;4.11
75431;BMP280;64127;51.488;5.462;2024-01-15T06:12:40;100037.72;;;4.07
75431;BMP280;64127;51.488;5.462;2024-01-15T06:15:12;100040.31;;;4.07
75431;BMP280;64127;51.488;5.462;2024-01-15T06:17:44;100040.84;;;4.01
75431;BMP280;64127;51.488;5.462;2024-01-15T06:20:16;100039.16;;;4.02
75431;BMP280;64127;51.488;5.462;2024-01-15T06:22:48;100033.66;;;3.96
75431;BMP280;64127;51.488;5.462;2024-01-15T06:25:20;100036.41;;;3.99
75431;BMP280;64127;51.488;5.462;2024-01-15T06:27:52;100038.09;;;3.98
75431;BMP280;64127;51.488;5.462;2024-01-15T06:30:24;100029.44;;;3.98
75431;BMP280;64127;51.488;5.462;2024-01-15T06:32:57;100033.66;;;3.96
75431;BMP280;64127;51.488;5.462;2024-01-15T06:35:29;100030.97;;;3.94
75431;BMP280;64127;51.488;5.462;2024-01-15T06:38:01;100034.38;;;3.93
75431;BMP280;64127;51.488;5.462;2024-01-15T06:40:33;100035.25;;;3.94
75431;BMP280;64127;51.488;5.462;2024-01-15T06:43:05;100034.38;;;3.93
75431;BMP280;64127;51.488;5.462;2024-01-15T06:45:37;100033.34;;;3.90
75431;BMP280;64127;51.488;5.462;2024-01-15T06:48:09;100035.25;;;3.94
75431;BMP280;64127;51.488;5.462;2024-01-15T06:50:43;100038.34;;;3.87
75431;BMP280;64127;51.488;5.462;2024-01-15T06:53:15;100042.00;;;3.90
75431;BMP280;64127;51.488;5.462;2024-01-15T06:55:47;100036.81;;;3.90
75431;BMP280;64127;51.488;5.462;2024-01-15T06:58:18;100033.34;;;3.90
75431;BMP280;64127;51.488;5.462;2024-01-15T07:00:50;100032.34;;;3.88
75431;BMP280;64127;51.488;5.462;2024-01-15T07:03:23;100017.13;;;3.78
75431;BMP280;64127;51.488;5.462;2024-01-15T07:05:55;100028.69;;;3.84
75431;BMP280;64127;51.488;5.462;2024-01-15T07:08:27;100025.16;;;3.82
75431;BMP280;64127;51.488;5.462;2024-01-15T07:10:59;100018.13;;;3.80
75431;BMP280;64127;51.488;5.462;2024-01-15T07:13:32;100028.00;;;3.87
75431;BMP280;64127;51.488;5.462;2024-01-15T07:16:04;100028.84;;;3.87
75431;BMP280;64127;51.488;5.462;2024-01-15T07:18:36;100028.00;;;3.87
75431;BMP280;64127;51.488;5.462;2024-01-15T07:21:08;100036.56;;;3.86
75431;BMP280;64127;51.488;5.462;2024-01-15T07:23:41;100042.47;;;3.83
75431;BMP280;64127;51.488;5.462;2024-01-15T07:26:14;100041.66;;;3.84
75431;BMP280;64127;51.488;5.462;2024-01-15T07:28:46;100037.34;;;3.85
75431;BMP280;64127;51.488;5.462;2024-01-15T07:31:18;100041.66;;;3.84
75431;BMP280;64127;51.488;5.462;2024-01-15T07:33:51;100042.38;;;3.82
75431;BMP280;64127;51.488;5.462;2024-01-15T07:36:23;100041.31;;;3.78
75431;BMP280;64127;51.488;5.462;2024-01-15T07:38:55;100033.56;;;3.78
75431;BMP280;64127;51.488;5.462;2024-01-15T07:41:28;100040.13;;;4.20
75431;BMP280;64127;51.488;5.462;2024-01-15T07:44:00;100042.97;;;3.92
75431;BMP280;64127;51.488;5.462;2024-01-15T07:46:32;100048.88;;;3.90
75431;BMP280;64127;51.488;5.462;2024-01-15T07:49:04;100048.72;;;3.87
75431;BMP280;64127;51.488;5.462;2024-01-15T07:51:37;100050.41;;;3.86
75431;BMP280;64127;51.488;5.462;2024-01-15T07:54:09;100047.66;;;3.83
75431;BMP280;64127;51.488;5.462;2024-01-15T07:57:01;100042.13;;;3.77
75431;BMP280;64127;51.488;5.462;2024-01-15T07:59:37;100053.81;;;3.85
75431;BMP280;64127;51.488;5.462;2024-01-15T08:02:09;100055.59;;;3.86
75431;BMP280;64127;51.488;5.462;2024-01-15T08:04:41;100058.19;;;3.86
75431;BMP280;64127;51.488;5.462;2024-01-15T08:07:14;100061.72;;;3.88
75431;BMP280;64127;51.488;5.462;2024-01-15T08:09:46;100064.25;;;3.87
75431;BMP280;64127;51.488;5.462;2024-01-15T08:12:19;100058.72;;;3.81
75431;BMP280;64127;51.488;5.462;2024-01-15T08:14:52;100064.25;;;3.87
75431;BMP280;64127;51.488;5.462;2024-01-15T08:17:23;100070.56;;;3.92
75431;BMP280;64127;51.488;5.462;2024-01-15T08:20:00;100065.53;;;3.95
75431;BMP280;64127;51.488;5.462;2024-01-15T08:22:33;100075.09;;;3.96
75431;BMP280;64127;51.488;5.462;2024-01-15T08:25:06;100069.81;;;3.94
75431;BMP280;64127;51.488;5.462;2024-01-15T08:27:38;100080.13;;;3.93
75431;BMP280;64127;51.488;5.462;2024-01-15T08:30:11;100076.69;;;3.94
75431;BMP280;64127;51.488;5.462;2024-01-15T08:32:43;100069.75;;;3.93
75431;BMP280;64127;51.488;5.462;2024-01-15T08:35:15;100062.78;;;3.92
75431;BMP280;64127;51.488;5.462;2024-01-15T08:37:54;100069.75;;;3.93
75431;BMP280;64127;51.488;5.462;2024-01-15T08:40:26;100068.28;;;3.98
75431;BMP280;64127;51.488;5.462;2024-01-15T08:42:58;100079.66;;;4.00
75431;BMP280;64127;51.488;5.462;2024-01-15T08:45:30;100077.06;;;4.00
75431;BMP280;64127;51.488;5.462;2024-01-15T08:48:03;100077.13;;;4.01
75431;BMP280;64127;51.488;5.462;2024-01-15T08:50:35;100083.03;;;3.99
75431;BMP280;64127;51.488;5.462;2024-01-15T08:53:07;100086.38;;;3.96
75431;BMP280;64127;51.488;5.462;2024-01-15T08:55:40;100078.50;;;3.95
75431;BMP280;64127;51.488;5.462;2024-01-15T08:58:14;100078.34;;;3.92
75431;BMP280;64127;51.488;5.462;2024-01-15T09:00:46;100086.19;;;3.93
75431;BMP280;64127;51.488;5.462;2024-01-15T09:03:18;100078.50;;;3.95
75431;BMP280;64127;51.488;5.462;2024-01-15T09:05:50;100071.53;;;3.94
75431;BMP280;64127;51.488;5.462;2024-01-15T09:08:23;100082.72;;;3.93
75431;BMP280;64127;51.488;5.462;2024-01-15T09:10:55;100084.56;;;3.95
75431;BMP280;64127;51.488;5.462;2024-01-15T09:13:27;100080.59;;;4.02
75431;BMP280;64127;51.488;5.462;2024-01-15T09:15:59;100085.88;;;4.03
75431;BMP280;64127;51.488;5.462;2024-01-15T09:18:32;100086.78;;;4.04
75431;BMP280;64127;51.488;5.462;2024-01-15T09:21:04;100059.25;;;3.90
75431;BMP280;64127;51.488;5.462;2024-01-15T09:23:38;100082.94;;;3.97
75431;BMP280;64127;51.488;5.462;2024-01-15T09:26:10;100093.22;;;3.96
75431;BMP280;64127;51.488;5.462;2024-01-15T09:28:42;100085.31;;;3.93
75431;BMP280;64127;51.488;5.462;2024-01-15T09:31:14;100088.84;;;3.95
75431;BMP280;64127;51.488;5.462;2024-01-15T09:33:46;100087.91;;;3.93
75431;BMP280;64127;51.488;5.462;2024-01-15T09:36:18;100088.69;;;3.92
75431;BMP280;64127;51.488;5.462;2024-01-15T09:38:50;100073.16;;;3.92
75431;BMP280;64127;51.488;5.462;2024-01-15T09:41:23;100072.41;;;3.94
75431;BMP280;64127;51.488;5.462;2024-01-15T09:43:55;100075.34;;;4.00
75431;BMP280;64127;51.488;5.462;2024-01-15T09:46:27;100080.59;;;4.02
75431;BMP280;64127;51.488;5.462;2024-01-15T09:49:00;100084.19;;;4.04
75431;BMP280;64127;51.488;5.462;2024-01-15T09:51:34;100093.81;;;4.06
75431;BMP280;64127;51.488;5.462;2024-01-15T09:54:08;100088.53;;;4.05
75431;BMP280;64127;51.488;5.462;2024-01-15T09:56:40;100097.63;;;4.13
75431;BMP280;64127;51.488;5.462;2024-01-15T09:59:19;100101.44;;;4.20
75431;BMP280;64127;51.488;5.462;2024-01-15T10:01:53;100103.53;;;4.27
75431;BMP280;64127;51.488;5.462;2024-01-15T10:04:26;100106.13;;;4.27
75431;BMP280;64127;51.488;5.462;2024-01-15T10:07:00;100108.00;;;4.29
75431;BMP280;64127;51.488;5.462;2024-01-15T10:09:33;100103.59;;;4.28
75431;BMP280;64127;51.488;5.462;2024-01-15T10:12:05;100105.34;;;4.28
75431;BMP280;64127;51.488;5.462;2024-01-15T10:14:38;100107.44;;;4.35
75431;BMP280;64127;51.488;5.462;2024-01-15T10:17:14;100101.47;;;4.70
75431;BMP280;64127;51.488;5.462;2024-01-15T10:19:49;100089.81;;;4.78
75431;BMP280;64127;51.488;5.462;2024-01-15T10:22:21;100086.41;;;4.79
75431;BMP280;64127;51.488;5.462;2024-01-15T10:24:54;100087.25;;;4.95
75431;BMP280;64127;51.488;5.462;2024-01-15T10:27:26;100085.13;;;5.22
75431;BMP280;64127;51.488;5.462;2024-01-15T10:30:01;100081.56;;;5.38
75431;BMP280;64127;51.488;5.462;2024-01-15T10:32:34;100083.47;;;5.59
75431;BMP280;64127;51.488;5.462;2024-01-15T10:35:07;100078.72;;;5.69
75431;BMP280;64127;51.488;5.462;2024-01-15T10:37:41;100088.16;;;5.67
75431;BMP280;64127;51.488;5.462;2024-01-15T10:40:14;100088.56;;;5.76
75431;BMP280;64127;51.488;5.462;2024-01-15T10:42:46;100084.97;;;5.90
75431;BMP280;64127;51.488;5.462;2024-01-15T10:45:19;100086.88;;;5.94
75431;BMP280;64127;51.488;5.462;2024-01-15T10:47:51;100090.22;;;5.74
75431;BMP280;64127;51.488;5.462;2024-01-15T10:50:23;100079.63;;;5.51
75431;BMP280;64127;51.488;5.462;2024-01-15T10:52:56;100077.00;;;5.69
75431;BMP280;64127;51.488;5.462;2024-01-15T10:55:30;100073.97;;;5.78
75431;BMP280;64127;51.488;5.462;2024-01-15T10:58:04;100074.28;;;6.03
75431;BMP280;64127;51.488;5.462;2024-01-15T11:00:37;100071.72;;;6.22
75431;BMP280;64127;51.488;5.462;2024-01-15T11:03:10;100080.28;;;6.20
75431;BMP280;64127;51.488;5.462;2024-01-15T11:05:44;100086.34;;;6.01
75431;BMP280;64127;51.488;5.462;2024-01-15T11:08:17;100088.06;;;5.83
75431;BMP280;64127;51.488;5.462;2024-01-15T11:10:51;100092.19;;;5.60
75431;BMP280;64127;51.488;5.462;2024-01-15T11:16:07;100097.13;;;5.55
75431;BMP280;64127;51.488;5.462;2024-01-15T11:21:31;100096.22;;;6.08
75431;BMP280;64127;51.488;5.462;2024-01-15T11:24:04;100087.75;;;6.12
75431;BMP280;64127;51.488;5.462;2024-01-15T11:26:45;100081.41;;;6.07
75431;BMP280;64127;51.488;5.462;2024-01-15T11:32:08;100106.78;;;5.93
75431;BMP280;64127;51.488;5.462;2024-01-15T11:34:55;100104.78;;;5.70
75431;BMP280;64127;51.488;5.462;2024-01-15T11:43:06;100095.63;;;5.07
75431;BMP280;64127;51.488;5.462;2024-01-15T11:45:42;100106.97;;;4.92
75431;BMP280;64127;51.488;5.462;2024-01-15T11:48:15;100102.13;;;4.82
75431;BMP280;64127;51.488;5.462;2024-01-15T11:50:50;100120.94;;;4.78
75431;BMP280;64127;51.488;5.462;2024-01-15T11:53:32;100110.25;;;4.72
75431;BMP280;64127;51.488;5.462;2024-01-15T11:56:21;100117.78;;;4.67
75431;BMP280;64127;51.488;5.462;2024-01-15T11:58:54;100114.28;;;4.67
75431;BMP280;64127;51.488;5.462;2024-01-15T12:01:26;100116.88;;;4.67
75431;BMP280;64127;51.488;5.462;2024-01-15T12:03:58;100114.53;;;4.71
75431;BMP280;64127;51.488;5.462;2024-01-15T12:06:30;100128.38;;;4.88
75431;BMP280;64127;51.488;5.462;2024-01-15T12:09:09;100123.19;;;4.88
75431;BMP280;64127;51.488;5.462;2024-01-15T12:11:51;100129.13;;;4.85
75431;BMP280;64127;51.488;5.462;2024-01-15T12:14:25;100134.94;;;4.81
75431;BMP280;64127;51.488;5.462;2024-01-15T12:16:58;100122.72;;;4.79
75431;BMP280;64127;51.488;5.462;2024-01-15T12:19:34;100119.97;;;4.76
75431;BMP280;64127;51.488;5.462;2024-01-15T12:22:06;100122.72;;;4.79
75431;BMP280;64127;51.488;5.462;2024-01-15T12:24:38;100121.38;;;4.87
75431;BMP280;64127;51.488;5.462;2024-01-15T12:27:11;100123.28;;;4.89
75431;BMP280;64127;51.488;5.462;2024-01-15T12:29:43;100123.28;;;4.89
75431;BMP280;64127;51.488;5.462;2024-01-15T12:32:15;100134.94;;;4.81
75431;BMP280;64127;51.488;5.462;2024-01-15T12:34:50;100111.38;;;4.60
75431;BMP280;64127;51.488;5.462;2024-01-15T12:37:22;100140.31;;;4.68
75431;BMP280;64127;51.488;5.462;2024-01-15T12:39:55;100133.03;;;4.61
75431;BMP280;64127;51.488;5.462;2024-01-15T12:42:28;100133.34;;;4.67
75431;BMP280;64127;51.488;5.462;2024-01-15T12:45:00;100140.31;;;4.68
75431;BMP280;64127;51.488;5.462;2024-01-15T12:47:32;100145.91;;;4.59
75431;BMP280;64127;51.488;5.462;2024-01-15T12:50:12;100155.16;;;4.54
75431;BMP280;64127;51.488;5.462;2024-01-15T12:52:51;100150.19;;;4.59
75431;BMP280;64127;51.488;5.462;2024-01-15T12:55:23;100163.50;;;4.65
75431;BMP280;64127;51.488;5.462;2024-01-15T12:57:55;100174.25;;;4.73
75431;BMP280;64127;51.488;5.462;2024-01-15T13:00:27;100166.47;;;4.73
75431;BMP280;64127;51.488;5.462;2024-01-15T13:02:59;100171.44;;;4.68
75431;BMP280;64127;51.488;5.462;2024-01-15T13:05:33;100175.25;;;4.58
75431;BMP280;64127;51.488;5.462;2024-01-15T13:08:06;100175.25;;;4.58
75431;BMP280;64127;51.488;5.462;2024-01-15T13:10:39;100174.38;;;4.58
75431;BMP280;64127;51.488;5.462;2024-01-15T13:13:11;100175.06;;;4.55
75431;BMP280;64127;51.488;5.462;2024-01-15T13:15:43;100184.41;;;4.52
75431;BMP280;64127;51.488;5.462;2024-01-15T13:18:15;100179.78;;;4.46
75431;BMP280;64127;51.488;5.462;2024-01-15T13:20:47;100188.94;;;4.40
75431;BMP280;64127;51.488;5.462;2024-01-15T13:23:20;100177.50;;;4.36
75431;BMP280;64127;51.488;5.462;2024-01-15T13:25:52;100179.47;;;4.40
75431;BMP280;64127;51.488;5.462;2024-01-15T13:28:24;100179.53;;;4.42
75431;BMP280;64127;51.488;5.462;2024-01-15T13:30:57;100182.84;;;4.39
75431;BMP280;64127;51.488;5.462;2024-01-15T13:33:29;100177.66;;;4.39
75431;BMP280;64127;51.488;5.462;2024-01-15T13:36:02;100183.16;;;4.45
75431;BMP280;64127;51.488;5.462;2024-01-15T13:38:34;100173.00;;;4.48
75431;BMP280;64127;51.488;5.462;2024-01-15T13:41:08;100179.72;;;4.45
75431;BMP280;64127;51.488;5.462;2024-01-15T13:43:40;100184.47;;;4.53
75431;BMP280;64127;51.488;5.462;2024-01-15T13:46:12;100183.03;;;4.58
75431;BMP280;64127;51.488;5.462;2024-01-15T13:48:44;100184.47;;;4.70
75431;BMP280;64127;51.488;5.462;2024-01-15T13:51:16;100184.81;;;4.76
75431;BMP280;64127;51.488;5.462;2024-01-15T13:53:50;100172.34;;;4.69
75431;BMP280;64127;51.488;5.462;2024-01-15T13:56:22;100185.47;;;4.72
75431;BMP280;64127;51.488;5.462;2024-01-15T13:58:54;100200.38;;;4.76
75431;BMP280;64127;51.488;5.462;2024-01-15T14:01:26;100195.19;;;4.76
75431;BMP280;64127;51.488;5.462;2024-01-15T14:03:59;100190.16;;;4.79
75431;BMP280;64127;51.488;5.462;2024-01-15T14:06:31;100187.03;;;5.18
75431;BMP280;64127;51.488;5.462;2024-01-15T14:09:03;100192.28;;;4.86
75431;BMP280;64127;51.488;5.462;2024-01-15T14:11:37;100191.78;;;4.77
75431;BMP280;64127;51.488;5.462;2024-01-15T14:14:09;100198.44;;;4.72
75431;BMP280;64127;51.488;5.462;2024-01-15T14:16:44;100207.19;;;4.74
75431;BMP280;64127;51.488;5.462;2024-01-15T14:19:16;100194.94;;;4.71
75431;BMP280;64127;51.488;5.462;2024-01-15T14:21:48;100187.31;;;4.74
75431;BMP280;64127;51.488;5.462;2024-01-15T14:24:21;100197.13;;;4.80
75431;BMP280;64127;51.488;5.462;2024-01-15T14:26:53;100203.06;;;4.77
75431;BMP280;64127;51.488;5.462;2024-01-15T14:29:37;100219.50;;;4.78
75431;BMP280;64127;51.488;5.462;2024-01-15T14:32:10;100215.38;;;4.81
75431;BMP280;64127;51.488;5.462;2024-01-15T14:34:59;100231.34;;;4.89
75431;BMP280;64127;51.488;5.462;2024-01-15T14:37:32;100240.03;;;4.89
75431;BMP280;64127;51.488;5.462;2024-01-15T14:40:06;100242.22;;;4.82
75431;BMP280;64127;51.488;5.462;2024-01-15T14:42:39;100261.03;;;4.78
75431;BMP280;64127;51.488;5.462;2024-01-15T14:45:13;100250.31;;;4.72
75431;BMP280;64127;51.488;5.462;2024-01-15T14:47:45;100239.63;;;4.66
75431;BMP280;64127;51.488;5.462;2024-01-15T14:50:18;100249.25;;;4.68
75431;BMP280;64127;51.488;5.462;2024-01-15T14:52:50;100251.75;;;4.67
75431;BMP280;64127;51.488;5.462;2024-01-15T14:55:22;100243.19;;;4.68